<?xml version="1.0" encoding="utf-8"?>
<gpx xmlns:xsi="http://www.w3.org/2001/XMLSchema-instance" xmlns:xsd="http://www.w3.org/2001/XMLSchema" version="1.1" creator="Shapelink.com" xmlns="http://www.topografix.com/GPX/1/1" xmlns:gpxtpx="http://www.garmin.com/xmlschemas/TrackPointExtension/v1">
  <metadata>
    <name>Övrigt 3.23 km, 2019-05-27</name>
    <desc></desc>
    <author><name>Marian Moron</name></author> 
    <time>2019-05-27T21:29:02Z</time>
  </metadata>
  <trk>
    <name>Övrigt 3.23 km, 2019-05-27</name>
    <trkseg>
      <trkpt lat="51.229874152903" lon="4.458056677852">
        <ele>11.2</ele>
        <time>2019-05-27T21:29:02Z</time>
      </trkpt>
      <trkpt lat="51.22997750173" lon="4.45875505776">
        <ele>6.6</ele>
        <time>2019-05-27T21:29:38Z</time>
      </trkpt>
      <trkpt lat="51.229979429567" lon="4.458851030515">
        <ele>6.4</ele>
        <time>2019-05-27T21:29:44Z</time>
      </trkpt>
      <trkpt lat="51.229978172282" lon="4.458906099598">
        <ele>5.8</ele>
        <time>2019-05-27T21:29:54Z</time>
      </trkpt>
      <trkpt lat="51.230316801042" lon="4.458965694907">
        <ele>4.2</ele>
        <time>2019-05-27T21:30:17Z</time>
      </trkpt>
      <trkpt lat="51.230438254773" lon="4.459359476569">
        <ele>3.2</ele>
        <time>2019-05-27T21:30:45Z</time>
      </trkpt>
      <trkpt lat="51.230448061596" lon="4.459440780999">
        <ele>2.8</ele>
        <time>2019-05-27T21:30:52Z</time>
      </trkpt>
      <trkpt lat="51.23046868107" lon="4.459531389338">
        <ele>2.6</ele>
        <time>2019-05-27T21:30:58Z</time>
      </trkpt>
      <trkpt lat="51.230471950011" lon="4.459835736127">
        <ele>2</ele>
        <time>2019-05-27T21:31:12Z</time>
      </trkpt>
      <trkpt lat="51.230632211939" lon="4.459944784646">
        <ele>1.8</ele>
        <time>2019-05-27T21:31:30Z</time>
      </trkpt>
      <trkpt lat="51.230797167731" lon="4.459986191232">
        <ele>0.4</ele>
        <time>2019-05-27T21:32:12Z</time>
      </trkpt>
      <trkpt lat="51.230741009001" lon="4.460207976306">
        <ele>0.4</ele>
        <time>2019-05-27T21:32:38Z</time>
      </trkpt>
      <trkpt lat="51.230759449181" lon="4.460835529159">
        <ele>0</ele>
        <time>2019-05-27T21:34:09Z</time>
      </trkpt>
      <trkpt lat="51.23090789263" lon="4.461292342709">
        <ele>0.6</ele>
        <time>2019-05-27T21:35:18Z</time>
      </trkpt>
      <trkpt lat="51.231059772658" lon="4.461693584262">
        <ele>0</ele>
        <time>2019-05-27T21:36:01Z</time>
      </trkpt>
      <trkpt lat="51.230858104144" lon="4.46190581397">
        <ele>0</ele>
        <time>2019-05-27T21:36:27Z</time>
      </trkpt>
      <trkpt lat="51.230586782041" lon="4.462097927118">
        <ele>3.4</ele>
        <time>2019-05-27T21:37:10Z</time>
      </trkpt>
      <trkpt lat="51.230526432361" lon="4.462130616528">
        <ele>3.6</ele>
        <time>2019-05-27T21:37:25Z</time>
      </trkpt>
      <trkpt lat="51.2304158751" lon="4.46209943586">
        <ele>9</ele>
        <time>2019-05-27T21:37:52Z</time>
      </trkpt>
      <trkpt lat="51.230396429092" lon="4.462118798049">
        <ele>8</ele>
        <time>2019-05-27T21:37:54Z</time>
      </trkpt>
      <trkpt lat="51.230131561052" lon="4.462326920626">
        <ele>9</ele>
        <time>2019-05-27T21:38:50Z</time>
      </trkpt>
      <trkpt lat="51.230199370623" lon="4.462585502241">
        <ele>8.2</ele>
        <time>2019-05-27T21:39:08Z</time>
      </trkpt>
      <trkpt lat="51.230254439706" lon="4.462784572366">
        <ele>10.6</ele>
        <time>2019-05-27T21:39:29Z</time>
      </trkpt>
      <trkpt lat="51.230379078559" lon="4.463365186579">
        <ele>6.2</ele>
        <time>2019-05-27T21:40:14Z</time>
      </trkpt>
      <trkpt lat="51.230393495427" lon="4.463455543461">
        <ele>6.2</ele>
        <time>2019-05-27T21:40:24Z</time>
      </trkpt>
      <trkpt lat="51.230622237478" lon="4.4640909753">
        <ele>6.4</ele>
        <time>2019-05-27T21:41:03Z</time>
      </trkpt>
      <trkpt lat="51.230710750342" lon="4.464402614342">
        <ele>7</ele>
        <time>2019-05-27T21:41:26Z</time>
      </trkpt>
      <trkpt lat="51.230735476947" lon="4.464516440544">
        <ele>6.6</ele>
        <time>2019-05-27T21:41:34Z</time>
      </trkpt>
      <trkpt lat="51.230771854393" lon="4.464714001927">
        <ele>7.4</ele>
        <time>2019-05-27T21:41:47Z</time>
      </trkpt>
      <trkpt lat="51.230799682301" lon="4.464888261628">
        <ele>6.4</ele>
        <time>2019-05-27T21:42:04Z</time>
      </trkpt>
      <trkpt lat="51.230825498553" lon="4.46503645362">
        <ele>5.2</ele>
        <time>2019-05-27T21:42:12Z</time>
      </trkpt>
      <trkpt lat="51.23085843942" lon="4.465761404151">
        <ele>3.2</ele>
        <time>2019-05-27T21:42:50Z</time>
      </trkpt>
      <trkpt lat="51.230849303149" lon="4.466176308201">
        <ele>8</ele>
        <time>2019-05-27T21:43:10Z</time>
      </trkpt>
      <trkpt lat="51.230843184362" lon="4.466321063614">
        <ele>8.6</ele>
        <time>2019-05-27T21:43:22Z</time>
      </trkpt>
      <trkpt lat="51.230806220183" lon="4.467035117675">
        <ele>9.2</ele>
        <time>2019-05-27T21:43:58Z</time>
      </trkpt>
      <trkpt lat="51.230801107224" lon="4.467106866739">
        <ele>9</ele>
        <time>2019-05-27T21:44:04Z</time>
      </trkpt>
      <trkpt lat="51.230804711441" lon="4.467153051008">
        <ele>9</ele>
        <time>2019-05-27T21:44:07Z</time>
      </trkpt>
      <trkpt lat="51.230803621794" lon="4.467191775386">
        <ele>9</ele>
        <time>2019-05-27T21:44:10Z</time>
      </trkpt>
      <trkpt lat="51.23078551689" lon="4.467225135348">
        <ele>8.2</ele>
        <time>2019-05-27T21:44:13Z</time>
      </trkpt>
      <trkpt lat="51.230605389859" lon="4.467356982635">
        <ele>10.4</ele>
        <time>2019-05-27T21:44:37Z</time>
      </trkpt>
      <trkpt lat="51.230431884529" lon="4.467431330088">
        <ele>10.8</ele>
        <time>2019-05-27T21:44:57Z</time>
      </trkpt>
      <trkpt lat="51.23026080995" lon="4.467472485217">
        <ele>12.4</ele>
        <time>2019-05-27T21:45:28Z</time>
      </trkpt>
      <trkpt lat="51.22995906155" lon="4.467550353068">
        <ele>5.4</ele>
        <time>2019-05-27T21:46:07Z</time>
      </trkpt>
      <trkpt lat="51.229580954041" lon="4.467664263089">
        <ele>7.6</ele>
        <time>2019-05-27T21:46:44Z</time>
      </trkpt>
      <trkpt lat="51.229525549682" lon="4.467667951125">
        <ele>7.4</ele>
        <time>2019-05-27T21:46:52Z</time>
      </trkpt>
      <trkpt lat="51.229076112204" lon="4.467529733594">
        <ele>7.6</ele>
        <time>2019-05-27T21:47:34Z</time>
      </trkpt>
      <trkpt lat="51.228745697706" lon="4.467417583772">
        <ele>7</ele>
        <time>2019-05-27T21:48:07Z</time>
      </trkpt>
      <trkpt lat="51.228520811329" lon="4.467361341223">
        <ele>10.4</ele>
        <time>2019-05-27T21:48:36Z</time>
      </trkpt>
      <trkpt lat="51.228502874063" lon="4.467355390074">
        <ele>11</ele>
        <time>2019-05-27T21:48:38Z</time>
      </trkpt>
      <trkpt lat="51.228078414647" lon="4.467073590596">
        <ele>15.4</ele>
        <time>2019-05-27T21:49:22Z</time>
      </trkpt>
      <trkpt lat="51.227981436064" lon="4.46688801533">
        <ele>12.8</ele>
        <time>2019-05-27T21:49:40Z</time>
      </trkpt>
      <trkpt lat="51.227894096666" lon="4.466423909527">
        <ele>8.4</ele>
        <time>2019-05-27T21:50:07Z</time>
      </trkpt>
      <trkpt lat="51.227889989535" lon="4.466383927864">
        <ele>8.2</ele>
        <time>2019-05-27T21:50:09Z</time>
      </trkpt>
      <trkpt lat="51.227885128033" lon="4.466210925448">
        <ele>7</ele>
        <time>2019-05-27T21:50:24Z</time>
      </trkpt>
      <trkpt lat="51.227871297898" lon="4.465836505975">
        <ele>1.8</ele>
        <time>2019-05-27T21:50:43Z</time>
      </trkpt>
      <trkpt lat="51.227845649284" lon="4.465369550326">
        <ele>0.4</ele>
        <time>2019-05-27T21:51:18Z</time>
      </trkpt>
      <trkpt lat="51.227863754188" lon="4.464836880581">
        <ele>3.4</ele>
        <time>2019-05-27T21:51:48Z</time>
      </trkpt>
      <trkpt lat="51.227791334572" lon="4.464404961274">
        <ele>0</ele>
        <time>2019-05-27T21:52:17Z</time>
      </trkpt>
      <trkpt lat="51.22779401678" lon="4.464184433485">
        <ele>0</ele>
        <time>2019-05-27T21:52:31Z</time>
      </trkpt>
      <trkpt lat="51.227797537178" lon="4.464100614485">
        <ele>0</ele>
        <time>2019-05-27T21:52:36Z</time>
      </trkpt>
      <trkpt lat="51.227763171388" lon="4.463608010222">
        <ele>0</ele>
        <time>2019-05-27T21:53:13Z</time>
      </trkpt>
      <trkpt lat="51.22765739181" lon="4.462947516502">
        <ele>2.4</ele>
        <time>2019-05-27T21:54:00Z</time>
      </trkpt>
      <trkpt lat="51.227611626636" lon="4.462659682056">
        <ele>3.4</ele>
        <time>2019-05-27T21:54:16Z</time>
      </trkpt>
      <trkpt lat="51.227600562528" lon="4.462633195252">
        <ele>3.2</ele>
        <time>2019-05-27T21:54:18Z</time>
      </trkpt>
      <trkpt lat="51.227497968072" lon="4.462154588762">
        <ele>2.2</ele>
        <time>2019-05-27T21:54:48Z</time>
      </trkpt>
      <trkpt lat="51.22748556286" lon="4.462065740622">
        <ele>1.2</ele>
        <time>2019-05-27T21:54:55Z</time>
      </trkpt>
      <trkpt lat="51.227455974753" lon="4.461938084285">
        <ele>1.6</ele>
        <time>2019-05-27T21:55:11Z</time>
      </trkpt>
      <trkpt lat="51.227319852697" lon="4.461617141334">
        <ele>1</ele>
        <time>2019-05-27T21:55:42Z</time>
      </trkpt>
      <trkpt lat="51.226982900317" lon="4.461658045006">
        <ele>6.8</ele>
        <time>2019-05-27T21:56:27Z</time>
      </trkpt>
      <trkpt lat="51.226886927562" lon="4.461772374122">
        <ele>4.4</ele>
        <time>2019-05-27T21:56:54Z</time>
      </trkpt>
      <trkpt lat="51.226864631708" lon="4.461729291156">
        <ele>4.6</ele>
        <time>2019-05-27T21:56:58Z</time>
      </trkpt>
      <trkpt lat="51.226859015835" lon="4.461702469076">
        <ele>5.4</ele>
        <time>2019-05-27T21:57:00Z</time>
      </trkpt>
      <trkpt lat="51.22686362588" lon="4.461674641168">
        <ele>5.6</ele>
        <time>2019-05-27T21:57:02Z</time>
      </trkpt>
      <trkpt lat="51.226872510694" lon="4.461583613734">
        <ele>6.6</ele>
        <time>2019-05-27T21:57:09Z</time>
      </trkpt>
      <trkpt lat="51.226874773807" lon="4.461521503855">
        <ele>6.8</ele>
        <time>2019-05-27T21:57:12Z</time>
      </trkpt>
      <trkpt lat="51.226969573096" lon="4.461461070356">
        <ele>7.8</ele>
        <time>2019-05-27T21:57:25Z</time>
      </trkpt>
      <trkpt lat="51.227128158644" lon="4.461398122287">
        <ele>10</ele>
        <time>2019-05-27T21:57:50Z</time>
      </trkpt>
      <trkpt lat="51.227234357317" lon="4.461357553891">
        <ele>13.2</ele>
        <time>2019-05-27T21:58:04Z</time>
      </trkpt>
      <trkpt lat="51.227380202377" lon="4.461070557635">
        <ele>7.6</ele>
        <time>2019-05-27T21:58:49Z</time>
      </trkpt>
      <trkpt lat="51.227371317563" lon="4.460700245293">
        <ele>4</ele>
        <time>2019-05-27T21:59:12Z</time>
      </trkpt>
      <trkpt lat="51.22726595708" lon="4.460064645816">
        <ele>6.2</ele>
        <time>2019-05-27T21:59:59Z</time>
      </trkpt>
      <trkpt lat="51.227083818393" lon="4.45941219872">
        <ele>5.8</ele>
        <time>2019-05-27T22:00:40Z</time>
      </trkpt>
      <trkpt lat="51.227094882501" lon="4.459132829993">
        <ele>8.4</ele>
        <time>2019-05-27T22:01:13Z</time>
      </trkpt>
      <trkpt lat="51.227163530262" lon="4.459105504999">
        <ele>9.2</ele>
        <time>2019-05-27T22:01:24Z</time>
      </trkpt>
      <trkpt lat="51.227588157316" lon="4.458861759347">
        <ele>19.2</ele>
        <time>2019-05-27T22:02:09Z</time>
      </trkpt>
      <trkpt lat="51.227916979253" lon="4.458621953188">
        <ele>12.8</ele>
        <time>2019-05-27T22:02:44Z</time>
      </trkpt>
      <trkpt lat="51.228350994035" lon="4.458403353236">
        <ele>11</ele>
        <time>2019-05-27T22:03:26Z</time>
      </trkpt>
      <trkpt lat="51.228536569301" lon="4.457931452266">
        <ele>7.4</ele>
        <time>2019-05-27T22:04:00Z</time>
      </trkpt>
      <trkpt lat="51.228490720308" lon="4.457731292494">
        <ele>5.8</ele>
        <time>2019-05-27T22:04:26Z</time>
      </trkpt>
      <trkpt lat="51.228274132012" lon="4.457338181384">
        <ele>15.2</ele>
        <time>2019-05-27T22:05:13Z</time>
      </trkpt>
      <trkpt lat="51.228261642981" lon="4.457338181384">
        <ele>16</ele>
        <time>2019-05-27T22:05:14Z</time>
      </trkpt>
      <trkpt lat="51.228205316613" lon="4.457321249946">
        <ele>17.8</ele>
        <time>2019-05-27T22:05:18Z</time>
      </trkpt>
      <trkpt lat="51.227828131113" lon="4.45762266307">
        <ele>11</ele>
        <time>2019-05-27T22:06:10Z</time>
      </trkpt>
      <trkpt lat="51.227675161438" lon="4.457795162572">
        <ele>3.8</ele>
        <time>2019-05-27T22:06:37Z</time>
      </trkpt>
      <trkpt lat="51.227635263594" lon="4.457846627438">
        <ele>2.4</ele>
        <time>2019-05-27T22:06:43Z</time>
      </trkpt>
      <trkpt lat="51.227379280368" lon="4.457850566931">
        <ele>4</ele>
        <time>2019-05-27T22:07:19Z</time>
      </trkpt>
      <trkpt lat="51.227301244879" lon="4.457680665818">
        <ele>8.8</ele>
        <time>2019-05-27T22:07:31Z</time>
      </trkpt>
      <trkpt lat="51.227262352863" lon="4.457609838763">
        <ele>9.4</ele>
        <time>2019-05-27T22:07:36Z</time>
      </trkpt>
      <trkpt lat="51.22732379219" lon="4.457578825733">
        <ele>10</ele>
        <time>2019-05-27T22:07:49Z</time>
      </trkpt>
      <trkpt lat="51.22735312884" lon="4.457578825733">
        <ele>9.8</ele>
        <time>2019-05-27T22:07:52Z</time>
      </trkpt>
      <trkpt lat="51.227772642935" lon="4.45733264933">
        <ele>9</ele>
        <time>2019-05-27T22:08:41Z</time>
      </trkpt>
      <trkpt lat="51.227857383944" lon="4.457265929406">
        <ele>4.2</ele>
        <time>2019-05-27T22:08:52Z</time>
      </trkpt>
      <trkpt lat="51.228299110074" lon="4.457111618627">
        <ele>16.8</ele>
        <time>2019-05-27T22:09:31Z</time>
      </trkpt>
      <trkpt lat="51.228375301545" lon="4.456948674491">
        <ele>10.4</ele>
        <time>2019-05-27T22:09:39Z</time>
      </trkpt>
      <trkpt lat="51.228426766411" lon="4.456946746654">
        <ele>13.2</ele>
        <time>2019-05-27T22:09:44Z</time>
      </trkpt>
      <trkpt lat="51.22845786326" lon="4.456953033079">
        <ele>13</ele>
        <time>2019-05-27T22:09:47Z</time>
      </trkpt>
      <trkpt lat="51.228909312394" lon="4.456919589298">
        <ele>17.6</ele>
        <time>2019-05-27T22:10:27Z</time>
      </trkpt>
      <trkpt lat="51.229039650939" lon="4.456899388919">
        <ele>17.2</ele>
        <time>2019-05-27T22:10:41Z</time>
      </trkpt>
      <trkpt lat="51.229464948545" lon="4.456744826683">
        <ele>11.2</ele>
        <time>2019-05-27T22:11:30Z</time>
      </trkpt>
      <trkpt lat="51.229906758494" lon="4.456616751251">
        <ele>17.4</ele>
        <time>2019-05-27T22:12:13Z</time>
      </trkpt>
      <trkpt lat="51.230345383321" lon="4.456459590626">
        <ele>15.6</ele>
        <time>2019-05-27T22:12:55Z</time>
      </trkpt>
      <trkpt lat="51.230392657237" lon="4.456457411332">
        <ele>15.8</ele>
        <time>2019-05-27T22:12:59Z</time>
      </trkpt>
      <trkpt lat="51.230429453778" lon="4.456438552057">
        <ele>15.6</ele>
        <time>2019-05-27T22:13:04Z</time>
      </trkpt>
      <trkpt lat="51.23052903075" lon="4.456392283969">
        <ele>12.6</ele>
        <time>2019-05-27T22:13:21Z</time>
      </trkpt>
      <trkpt lat="51.230760203552" lon="4.456344926234">
        <ele>17.6</ele>
        <time>2019-05-27T22:13:41Z</time>
      </trkpt>
      <trkpt lat="51.231045271971" lon="4.456213078947">
        <ele>6.4</ele>
        <time>2019-05-27T22:14:13Z</time>
      </trkpt>
      <trkpt lat="51.231092462068" lon="4.456262196881">
        <ele>6.6</ele>
        <time>2019-05-27T22:14:35Z</time>
      </trkpt>
      <trkpt lat="51.231211485048" lon="4.456342411664">
        <ele>9.2</ele>
        <time>2019-05-27T22:15:05Z</time>
      </trkpt>
      <trkpt lat="51.231255070928" lon="4.456444335568">
        <ele>9.4</ele>
        <time>2019-05-27T22:15:11Z</time>
      </trkpt>
      <trkpt lat="51.23132531125" lon="4.456537458477">
        <ele>7.6</ele>
        <time>2019-05-27T22:15:18Z</time>
      </trkpt>
      <trkpt lat="51.231318270454" lon="4.456631251938">
        <ele>6.2</ele>
        <time>2019-05-27T22:15:23Z</time>
      </trkpt>
      <trkpt lat="51.231322209947" lon="4.456708449237">
        <ele>5.2</ele>
        <time>2019-05-27T22:15:27Z</time>
      </trkpt>
      <trkpt lat="51.23126328519" lon="4.45713735106">
        <ele>3</ele>
        <time>2019-05-27T22:15:50Z</time>
      </trkpt>
      <trkpt lat="51.231249622693" lon="4.457211195599">
        <ele>2.8</ele>
        <time>2019-05-27T22:15:54Z</time>
      </trkpt>
      <trkpt lat="51.231242162802" lon="4.457245812846">
        <ele>2.4</ele>
        <time>2019-05-27T22:15:56Z</time>
      </trkpt>
      <trkpt lat="51.231241576069" lon="4.45749442">
        <ele>0.4</ele>
        <time>2019-05-27T22:16:09Z</time>
      </trkpt>
      <trkpt lat="51.231238055671" lon="4.457566923435">
        <ele>1</ele>
        <time>2019-05-27T22:16:13Z</time>
      </trkpt>
      <trkpt lat="51.231236295472" lon="4.457652334996">
        <ele>1.8</ele>
        <time>2019-05-27T22:16:18Z</time>
      </trkpt>
      <trkpt lat="51.231317096988" lon="4.45798140839">
        <ele>0</ele>
        <time>2019-05-27T22:16:41Z</time>
      </trkpt>
      <trkpt lat="51.231348529113" lon="4.458425313814">
        <ele>0</ele>
        <time>2019-05-27T22:17:10Z</time>
      </trkpt>
      <trkpt lat="51.231306619613" lon="4.458601752809">
        <ele>0.4</ele>
        <time>2019-05-27T22:17:19Z</time>
      </trkpt>
      <trkpt lat="51.230871515184" lon="4.45880032002">
        <ele>1.2</ele>
        <time>2019-05-27T22:18:04Z</time>
      </trkpt>
      <trkpt lat="51.230757772801" lon="4.458826052453">
        <ele>1.6</ele>
        <time>2019-05-27T22:18:16Z</time>
      </trkpt>
      <trkpt lat="51.23059608595" lon="4.458869219238">
        <ele>2.4</ele>
        <time>2019-05-27T22:18:31Z</time>
      </trkpt>
      <trkpt lat="51.230562642169" lon="4.458883803744">
        <ele>2.4</ele>
        <time>2019-05-27T22:18:35Z</time>
      </trkpt>
      <trkpt lat="51.230504136507" lon="4.45896879621">
        <ele>3.4</ele>
        <time>2019-05-27T22:18:46Z</time>
      </trkpt>
      <trkpt lat="51.23054495636" lon="4.459175912959">
        <ele>3.4</ele>
        <time>2019-05-27T22:19:13Z</time>
      </trkpt>
      <trkpt lat="51.230554930821" lon="4.459241291779">
        <ele>3.6</ele>
        <time>2019-05-27T22:19:18Z</time>
      </trkpt>
      <trkpt lat="51.230559037952" lon="4.459287392229">
        <ele>3.4</ele>
        <time>2019-05-27T22:19:22Z</time>
      </trkpt>
      <trkpt lat="51.230572784268" lon="4.459432902013">
        <ele>2.4</ele>
        <time>2019-05-27T22:19:37Z</time>
      </trkpt>
      <trkpt lat="51.230497430987" lon="4.459542537265">
        <ele>2.8</ele>
        <time>2019-05-27T22:20:03Z</time>
      </trkpt>
      <trkpt lat="51.230293834636" lon="4.45900819114">
        <ele>0.8</ele>
        <time>2019-05-27T22:21:02Z</time>
      </trkpt>
      <trkpt lat="51.229947829804" lon="4.458760841271">
        <ele>1.8</ele>
        <time>2019-05-27T22:21:43Z</time>
      </trkpt>
      <trkpt lat="51.229895191472" lon="4.458057348404">
        <ele>0.6</ele>
        <time>2019-05-27T22:22:40Z</time>
      </trkpt>
      <trkpt lat="51.229892173988" lon="4.458000016208">
        <ele>0.6</ele>
        <time>2019-05-27T22:22:44Z</time>
      </trkpt>
      <trkpt lat="51.229730738594" lon="4.458001776407">
        <ele>2.4</ele>
        <time>2019-05-27T22:23:23Z</time>
      </trkpt>
    </trkseg>
  </trk>
</gpx>